Карточка аэропорта UATT

Внимание!
Информация на этой странице в стадии наполнения.
Если вы не увидели какой-то информации, или заметили неточность - пожалуйста сообщите нам!
Спасибо!
Команда RU-STAFF
Название аэропортаАктобе
Название аэропорта (англ.)Aktobe
Превышение738 ft. (224.9 m.)
Координаты50°14.748', 57°12.402'
Высота перехода10000ft
Эшелон переходаFL120, QNH<733:FL130
Коды ответчика3440-3447, 3540-3547
Зона ОрВДАктобе РПИ (UATT)
Данные METARUATT 020500Z 05005MPS 9000 -SN OVC042 M16/M20 Q1040 NOSIG RMK QFE760/1014
Проноз погоды (TAF)UATT 011702Z 0118/0218 02004MPS 9999 SCT033 TXM10/0212Z TNM15/0202Z TEMPO 0120/0206 3100 -SHSN BR BKN011 BKN020CB TEMPO 0206/0212 06010MPS
NOTAMshow/hide NOTAM
AWOS   TABLE

Информация о ВПП

ВПП Длина ВПП (м.) Покрытие Курс ВПП Частота ILS
133202Бетон135111.7
313202Бетон315111.7

Диспетчерские позиции




Спутниковое изображение